Time;durP1;ratioP1;P1;durP2;ratioP2;P2;SDS_P1;SDS_P2;PMS_P1;PMS_P2;Temp;Humidity;BMP_temperature;BMP_pressure;BME280_temperature;BME280_humidity;BME280_pressure;Samples;Min_cycle;Max_cycle;Signal;HPM_P1;HPM_P2
2021/12/12 00:01:43;;;;;;;56.33;22.17;;;2.50;99.90;;;;;;5065889;28;20232;-43
2021/12/12 00:04:14;;;;;;;53.27;20.63;;;2.50;99.90;;;;;;5041355;28;20297;-44
2021/12/12 00:06:45;;;;;;;52.90;19.93;;;2.50;99.90;;;;;;5054206;28;20568;-45
2021/12/12 00:09:16;;;;;;;49.50;21.00;;;2.50;99.90;;;;;;5049753;28;20314;-45
2021/12/12 00:11:42;;;;;;;45.83;19.97;;;2.40;99.90;;;;;;5043667;28;20325;-47
2021/12/12 00:14:15;;;;;;;56.70;21.30;;;2.40;99.90;;;;;;5043096;28;20217;-45
2021/12/12 00:16:43;;;;;;;53.50;19.80;;;2.40;99.90;;;;;;5042498;28;20199;-45
2021/12/12 00:19:09;;;;;;;52.17;20.10;;;2.40;99.90;;;;;;5034143;28;20211;-45
2021/12/12 00:21:38;;;;;;;59.83;22.70;;;2.50;99.90;;;;;;5056012;28;20211;-46
2021/12/12 00:24:07;;;;;;;56.93;20.87;;;2.50;99.90;;;;;;5043839;28;20226;-45
2021/12/12 00:26:34;;;;;;;48.60;18.47;;;2.40;99.90;;;;;;5042621;28;20296;-44
2021/12/12 00:29:01;;;;;;;52.43;19.90;;;2.50;99.90;;;;;;5044600;28;20223;-44
2021/12/12 00:31:29;;;;;;;64.03;20.90;;;2.50;99.90;;;;;;5050163;28;20418;-48
2021/12/12 00:33:57;;;;;;;63.67;20.87;;;2.50;99.90;;;;;;5053389;28;20212;-45
2021/12/12 00:36:25;;;;;;;51.40;20.87;;;2.50;99.90;;;;;;5041605;28;20226;-48
2021/12/12 00:38:55;;;;;;;67.17;21.80;;;2.50;99.90;;;;;;5046557;28;20699;-46
2021/12/12 00:41:27;;;;;;;61.73;22.03;;;2.50;99.90;;;;;;5040218;28;20347;-45
2021/12/12 00:43:54;;;;;;;55.27;20.77;;;2.50;99.90;;;;;;5043293;28;20210;-45
2021/12/12 00:46:24;;;;;;;58.47;21.33;;;2.50;99.90;;;;;;5058942;28;21118;-42
2021/12/12 00:48:53;;;;;;;61.07;20.73;;;2.50;99.90;;;;;;5048565;28;20217;-44
2021/12/12 00:51:25;;;;;;;60.47;22.93;;;2.60;99.90;;;;;;5041571;28;20202;-45
2021/12/12 00:53:53;;;;;;;59.03;20.47;;;2.60;99.90;;;;;;5058869;28;20202;-43
2021/12/12 00:56:20;;;;;;;69.23;21.70;;;2.60;99.90;;;;;;5042073;28;20218;-44
2021/12/12 00:58:46;;;;;;;63.37;21.63;;;2.60;99.90;;;;;;5045982;28;20226;-43
2021/12/12 01:01:16;;;;;;;59.23;21.50;;;2.60;99.90;;;;;;5046007;28;20199;-46
2021/12/12 01:03:47;;;;;;;61.87;22.63;;;2.60;99.90;;;;;;5054043;28;20265;-43
2021/12/12 01:06:17;;;;;;;74.33;21.07;;;2.60;99.90;;;;;;5030987;28;20211;-44
2021/12/12 01:08:45;;;;;;;64.00;21.57;;;2.60;99.90;;;;;;5052751;28;20223;-44
2021/12/12 01:11:15;;;;;;;61.40;22.13;;;2.60;99.90;;;;;;5060641;28;20752;-44
2021/12/12 01:13:42;;;;;;;62.00;22.60;;;2.60;99.90;;;;;;5061723;28;20209;-43
2021/12/12 01:16:13;;;;;;;70.07;21.40;;;2.60;99.90;;;;;;5039064;28;20203;-43
2021/12/12 01:18:45;;;;;;;54.03;21.87;;;2.60;99.90;;;;;;5045375;28;20598;-46
2021/12/12 01:21:17;;;;;;;67.03;21.53;;;2.70;99.90;;;;;;5029004;28;20214;-42
2021/12/12 01:23:46;;;;;;;69.70;22.17;;;2.70;99.90;;;;;;5052604;28;20205;-49
2021/12/12 01:26:13;;;;;;;56.87;21.80;;;2.70;99.90;;;;;;5044142;28;20200;-43
2021/12/12 01:28:43;;;;;;;75.03;22.67;;;2.70;99.90;;;;;;5046247;28;20235;-45
2021/12/12 01:31:14;;;;;;;52.77;20.70;;;2.70;99.90;;;;;;5045414;28;20232;-45
2021/12/12 01:33:41;;;;;;;54.13;20.37;;;2.70;99.90;;;;;;5056256;28;20227;-45
2021/12/12 01:36:21;;;;;;;51.73;21.23;;;2.70;99.90;;;;;;5044274;28;20199;-42
2021/12/12 01:38:53;;;;;;;57.70;21.27;;;2.70;99.90;;;;;;5039817;28;20229;-43
2021/12/12 01:41:23;;;;;;;58.67;21.33;;;2.70;99.90;;;;;;5044872;28;20191;-43
2021/12/12 01:43:51;;;;;;;56.97;21.67;;;2.70;99.90;;;;;;5063976;28;20206;-45
2021/12/12 01:46:22;;;;;;;74.47;21.37;;;2.70;99.90;;;;;;5045438;28;20184;-47
2021/12/12 01:48:52;;;;;;;54.03;20.60;;;2.70;99.90;;;;;;5043934;28;20230;-44
2021/12/12 01:51:20;;;;;;;78.33;21.97;;;2.70;99.90;;;;;;5041124;28;20934;-48
2021/12/12 01:53:52;;;;;;;50.93;20.40;;;2.70;99.90;;;;;;5040085;28;20219;-42
2021/12/12 01:56:24;;;;;;;65.17;21.27;;;2.70;99.90;;;;;;5046122;28;20196;-47
2021/12/12 01:58:54;;;;;;;56.63;19.40;;;2.70;99.90;;;;;;5044869;28;20229;-43
2021/12/12 02:01:24;;;;;;;58.47;21.87;;;2.70;99.90;;;;;;5038803;28;20500;-45
2021/12/12 02:03:59;;;;;;;58.17;21.53;;;2.80;99.90;;;;;;5049689;28;20207;-45
2021/12/12 02:06:26;;;;;;;54.97;19.57;;;2.80;99.90;;;;;;5044790;28;20198;-47
2021/12/12 02:08:55;;;;;;;52.17;20.17;;;2.80;99.90;;;;;;5037083;28;20234;-45
2021/12/12 02:11:26;;;;;;;59.77;20.80;;;2.80;99.90;;;;;;5048750;28;20187;-43
2021/12/12 02:13:56;;;;;;;49.10;18.57;;;2.80;99.90;;;;;;5042149;28;20214;-43
2021/12/12 02:16:27;;;;;;;55.30;20.33;;;2.80;99.90;;;;;;5044192;28;20560;-44
2021/12/12 02:18:57;;;;;;;57.00;20.50;;;2.80;99.90;;;;;;5040468;28;20222;-46
2021/12/12 02:21:33;;;;;;;60.00;21.20;;;2.80;99.90;;;;;;5045139;28;20619;-44
2021/12/12 02:24:36;;;;;;;55.50;20.37;;;2.80;99.90;;;;;;5031037;28;20937;-43
2021/12/12 02:35:36;;;;;;;47.00;18.87;;;2.90;99.90;;;;;;5049998;28;20664;-44
2021/12/12 02:38:05;;;;;;;55.33;18.67;;;2.90;99.90;;;;;;5043812;28;20944;-43
2021/12/12 02:40:37;;;;;;;56.87;20.77;;;2.90;99.90;;;;;;5037108;28;20227;-43
2021/12/12 02:43:05;;;;;;;52.63;18.50;;;2.90;99.90;;;;;;5049171;28;20205;-43
2021/12/12 02:45:33;;;;;;;49.73;18.07;;;2.90;99.90;;;;;;5043725;28;20250;-43
2021/12/12 02:48:04;;;;;;;52.30;19.20;;;2.90;99.90;;;;;;5039823;28;20191;-42
2021/12/12 02:50:35;;;;;;;48.93;20.77;;;2.90;99.90;;;;;;5044155;28;20223;-43
2021/12/12 02:53:05;;;;;;;49.50;18.37;;;2.90;99.90;;;;;;5040922;28;20699;-43
2021/12/12 02:55:36;;;;;;;44.20;17.33;;;2.90;99.90;;;;;;5043265;28;20210;-44
2021/12/12 02:58:06;;;;;;;51.17;21.13;;;2.90;99.90;;;;;;5037827;28;20955;-43
2021/12/12 03:00:37;;;;;;;38.03;16.60;;;3.00;99.90;;;;;;5048657;28;20219;-45
2021/12/12 03:03:05;;;;;;;46.63;19.63;;;2.90;99.90;;;;;;5051773;28;20214;-48
2021/12/12 03:05:34;;;;;;;46.87;18.60;;;2.90;99.90;;;;;;5045375;28;20207;-43
2021/12/12 03:08:01;;;;;;;52.10;20.40;;;3.00;99.90;;;;;;5040237;28;20201;-43
2021/12/12 03:10:35;;;;;;;46.00;17.77;;;3.00;99.90;;;;;;5043363;28;20238;-44
2021/12/12 03:13:02;;;;;;;51.13;19.13;;;3.00;99.90;;;;;;5046194;28;20581;-43
2021/12/12 03:15:34;;;;;;;48.40;18.90;;;3.00;99.90;;;;;;5045888;28;20667;-48
2021/12/12 03:18:03;;;;;;;49.73;18.07;;;3.00;99.90;;;;;;5058950;28;20866;-45
2021/12/12 03:20:34;;;;;;;46.40;19.60;;;3.00;99.90;;;;;;5057145;28;20230;-46
2021/12/12 03:23:06;;;;;;;44.83;19.20;;;3.10;99.90;;;;;;5040429;28;20198;-44
2021/12/12 03:25:37;;;;;;;50.70;19.47;;;3.10;99.90;;;;;;5043395;28;20191;-45
2021/12/12 03:28:06;;;;;;;51.67;20.67;;;3.10;99.90;;;;;;5033060;28;20187;-44
2021/12/12 03:30:33;;;;;;;43.50;19.00;;;3.10;99.90;;;;;;5048506;28;20712;-43
2021/12/12 03:33:00;;;;;;;45.80;19.13;;;3.10;99.90;;;;;;5049537;28;20198;-43
2021/12/12 03:35:27;;;;;;;47.10;18.83;;;3.10;99.90;;;;;;5049125;28;20207;-46
2021/12/12 03:37:54;;;;;;;41.30;17.80;;;3.10;99.90;;;;;;5035290;28;20294;-44
2021/12/12 03:40:25;;;;;;;43.03;19.30;;;3.20;99.90;;;;;;5042950;28;20214;-46
2021/12/12 03:42:57;;;;;;;46.70;19.53;;;3.20;99.90;;;;;;5029141;28;20202;-44
2021/12/12 03:45:25;;;;;;;37.60;17.40;;;3.20;99.90;;;;;;5045768;28;20214;-43
2021/12/12 03:47:57;;;;;;;44.17;19.23;;;3.20;99.90;;;;;;5040748;28;20568;-45
2021/12/12 03:50:33;;;;;;;47.80;19.83;;;3.20;99.90;;;;;;5043209;28;20235;-46
2021/12/12 03:53:00;;;;;;;52.60;20.27;;;3.30;99.90;;;;;;5039636;28;20278;-44
2021/12/12 03:55:28;;;;;;;47.60;20.43;;;3.30;99.90;;;;;;5042216;28;20208;-46
2021/12/12 03:57:58;;;;;;;46.83;21.10;;;3.30;99.90;;;;;;5041615;28;20219;-46
2021/12/12 04:00:29;;;;;;;48.30;19.47;;;3.40;99.90;;;;;;5038039;28;20309;-45
2021/12/12 04:02:57;;;;;;;42.67;18.80;;;3.40;99.90;;;;;;5050446;28;20206;-48
2021/12/12 04:05:24;;;;;;;41.83;19.30;;;3.40;99.90;;;;;;5042140;28;20191;-46
2021/12/12 04:07:51;;;;;;;46.57;19.70;;;3.40;99.90;;;;;;5042782;28;20253;-46
2021/12/12 04:10:20;;;;;;;41.43;19.17;;;3.50;99.90;;;;;;5038946;28;20978;-44
2021/12/12 04:12:48;;;;;;;38.73;18.73;;;3.50;99.90;;;;;;5056177;28;20210;-44
2021/12/12 04:15:17;;;;;;;42.70;18.73;;;3.50;99.90;;;;;;5048302;28;20221;-46
2021/12/12 04:17:44;;;;;;;46.00;20.00;;;3.50;99.90;;;;;;5053825;28;20207;-48
2021/12/12 04:20:15;;;;;;;45.10;19.70;;;3.60;99.90;;;;;;5042235;28;20234;-43
2021/12/12 04:22:42;;;;;;;44.00;19.37;;;3.60;99.90;;;;;;5049210;28;20203;-46
2021/12/12 04:25:09;;;;;;;42.00;18.23;;;3.60;99.90;;;;;;5044888;28;20456;-43
2021/12/12 04:27:37;;;;;;;36.80;19.03;;;3.60;99.90;;;;;;5043564;28;20207;-43
2021/12/12 04:30:06;;;;;;;39.13;19.23;;;3.60;99.90;;;;;;5035059;28;20237;-45
2021/12/12 04:32:35;;;;;;;37.50;17.50;;;3.60;99.90;;;;;;5057612;28;20204;-45
2021/12/12 04:35:08;;;;;;;40.93;20.37;;;3.70;99.90;;;;;;5053786;28;20200;-46
2021/12/12 04:37:34;;;;;;;39.17;18.93;;;3.70;99.90;;;;;;5045369;28;20191;-45
2021/12/12 04:40:01;;;;;;;38.67;19.03;;;3.70;99.90;;;;;;5043233;28;20229;-43
2021/12/12 04:42:31;;;;;;;47.37;20.27;;;3.70;99.90;;;;;;5049135;28;20229;-43
2021/12/12 04:45:13;;;;;;;46.53;19.43;;;3.70;99.90;;;;;;5033116;28;20773;-44
2021/12/12 04:50:41;;;;;;;42.37;19.87;;;3.80;99.90;;;;;;5045048;28;20231;-45
2021/12/12 04:53:11;;;;;;;50.10;22.17;;;3.80;99.90;;;;;;5046998;28;20221;-46
2021/12/12 04:55:46;;;;;;;50.50;21.20;;;3.80;99.90;;;;;;5044296;28;20204;-44
2021/12/12 04:58:19;;;;;;;49.83;22.37;;;3.80;99.90;;;;;;5048663;28;20203;-45
2021/12/12 05:00:50;;;;;;;46.97;22.27;;;3.80;99.90;;;;;;5034175;28;20663;-45
2021/12/12 05:03:23;;;;;;;48.60;21.10;;;3.90;99.90;;;;;;5053435;28;20195;-46
2021/12/12 05:05:55;;;;;;;47.67;21.23;;;3.90;99.90;;;;;;5042184;28;20702;-46
2021/12/12 05:08:29;;;;;;;54.20;20.67;;;3.90;99.90;;;;;;5043677;28;20225;-47
2021/12/12 05:11:01;;;;;;;56.40;22.33;;;3.90;99.90;;;;;;5041745;28;20218;-47
2021/12/12 05:13:33;;;;;;;48.93;21.17;;;3.90;99.90;;;;;;5044554;28;20208;-46
2021/12/12 05:16:06;;;;;;;52.30;22.73;;;3.90;99.90;;;;;;5038358;28;20225;-47
2021/12/12 05:18:38;;;;;;;53.23;22.40;;;3.90;99.90;;;;;;5052729;28;20203;-45
2021/12/12 05:21:07;;;;;;;50.27;22.13;;;3.90;99.90;;;;;;5054376;28;20182;-44
2021/12/12 05:23:35;;;;;;;49.00;21.17;;;3.90;99.90;;;;;;5045873;28;20206;-43
2021/12/12 05:26:06;;;;;;;49.07;21.67;;;3.90;99.90;;;;;;5042006;28;20211;-43
2021/12/12 05:28:37;;;;;;;50.43;21.17;;;3.90;99.90;;;;;;5045106;28;20196;-43
2021/12/12 05:31:07;;;;;;;50.73;21.47;;;3.90;99.90;;;;;;5034722;28;20215;-42
2021/12/12 05:33:36;;;;;;;51.60;23.00;;;3.90;99.90;;;;;;5058946;28;20541;-44
2021/12/12 05:36:06;;;;;;;49.67;22.13;;;3.90;99.90;;;;;;5042199;28;20191;-47
2021/12/12 05:38:33;;;;;;;48.90;22.03;;;3.90;99.90;;;;;;5044808;28;20254;-48
2021/12/12 05:41:00;;;;;;;46.50;21.17;;;3.90;99.90;;;;;;5045805;28;20214;-42
2021/12/12 05:43:29;;;;;;;49.30;21.83;;;3.90;99.90;;;;;;5055934;28;20218;-44
2021/12/12 05:45:56;;;;;;;47.80;21.80;;;3.90;99.90;;;;;;5042285;28;22107;-45
2021/12/12 05:48:23;;;;;;;49.50;21.57;;;3.90;99.90;;;;;;5048869;28;20195;-46
2021/12/12 05:50:52;;;;;;;59.23;23.13;;;3.90;99.90;;;;;;5049940;28;20951;-49
2021/12/12 05:53:19;;;;;;;52.87;21.30;;;3.90;99.90;;;;;;5057797;28;20203;-42
2021/12/12 05:55:47;;;;;;;54.67;22.63;;;3.90;99.90;;;;;;5048485;28;20564;-45
2021/12/12 05:58:17;;;;;;;53.23;21.40;;;4.00;99.90;;;;;;5044428;28;20214;-44
2021/12/12 06:00:47;;;;;;;50.90;22.37;;;4.00;99.90;;;;;;5040951;28;20282;-46
2021/12/12 06:03:17;;;;;;;61.70;25.17;;;4.00;99.90;;;;;;5046767;28;20202;-45
2021/12/12 06:05:45;;;;;;;57.90;23.70;;;4.00;99.90;;;;;;5055625;28;20199;-47
2021/12/12 06:08:15;;;;;;;60.83;23.33;;;4.00;99.90;;;;;;5055273;28;20201;-46
2021/12/12 06:10:43;;;;;;;59.33;24.73;;;4.00;99.90;;;;;;5045898;28;20219;-46
2021/12/12 06:13:13;;;;;;;48.23;21.03;;;4.00;99.90;;;;;;5043977;28;20199;-46
2021/12/12 06:15:41;;;;;;;58.33;22.90;;;4.10;99.90;;;;;;5051205;28;20214;-48
2021/12/12 06:18:09;;;;;;;57.57;24.27;;;4.10;99.90;;;;;;5034630;28;20707;-45
2021/12/12 06:20:36;;;;;;;52.73;22.53;;;4.10;99.90;;;;;;5050386;28;20226;-44
2021/12/12 06:23:03;;;;;;;55.27;23.83;;;4.10;99.90;;;;;;5041342;28;20560;-44
2021/12/12 06:25:32;;;;;;;53.80;22.90;;;4.10;99.90;;;;;;5043144;28;20206;-44
2021/12/12 06:27:58;;;;;;;53.27;24.87;;;4.10;99.90;;;;;;5058390;28;20219;-48
2021/12/12 06:30:25;;;;;;;56.67;24.13;;;4.10;99.90;;;;;;5046679;28;20933;-47
2021/12/12 06:32:53;;;;;;;60.93;23.40;;;4.20;99.90;;;;;;5042383;28;20211;-47
2021/12/12 06:35:21;;;;;;;47.17;22.40;;;4.20;99.90;;;;;;5045914;28;20211;-47
2021/12/12 06:37:48;;;;;;;60.53;23.20;;;4.20;99.90;;;;;;5057018;28;20194;-49
2021/12/12 06:40:19;;;;;;;53.33;22.50;;;4.20;99.90;;;;;;5053588;28;20223;-45
2021/12/12 06:42:49;;;;;;;57.60;23.20;;;4.20;99.90;;;;;;5055253;28;20217;-44
2021/12/12 06:45:17;;;;;;;55.90;25.27;;;4.20;99.90;;;;;;5041309;28;20215;-43
2021/12/12 06:47:44;;;;;;;59.57;24.03;;;4.20;99.90;;;;;;5054147;28;20202;-48
2021/12/12 06:50:11;;;;;;;67.33;25.00;;;4.20;99.90;;;;;;5043533;28;20218;-45
2021/12/12 06:52:39;;;;;;;56.60;22.93;;;4.20;99.90;;;;;;5057376;28;20206;-46
2021/12/12 06:55:09;;;;;;;53.00;22.87;;;4.20;99.90;;;;;;5041033;28;20198;-46
2021/12/12 06:57:37;;;;;;;53.93;22.87;;;4.20;99.90;;;;;;5055064;28;20219;-44
2021/12/12 07:00:09;;;;;;;48.73;19.57;;;4.30;99.90;;;;;;5052601;28;20234;-44
2021/12/12 07:02:37;;;;;;;50.03;20.53;;;4.30;99.90;;;;;;5056828;28;20206;-44
2021/12/12 07:05:06;;;;;;;52.37;21.90;;;4.30;99.90;;;;;;5038461;28;20233;-46
2021/12/12 07:07:33;;;;;;;49.70;19.63;;;4.30;99.90;;;;;;5043318;28;20191;-44
2021/12/12 07:10:00;;;;;;;50.63;20.60;;;4.30;99.90;;;;;;5052644;28;20218;-46
2021/12/12 07:12:27;;;;;;;50.03;21.17;;;4.30;99.90;;;;;;5046347;28;20233;-45
2021/12/12 07:14:54;;;;;;;52.80;21.00;;;4.30;99.90;;;;;;5057447;28;20187;-48
2021/12/12 07:17:24;;;;;;;45.17;18.73;;;4.30;99.90;;;;;;5039072;28;20296;-44
2021/12/12 07:19:51;;;;;;;46.23;19.13;;;4.30;99.90;;;;;;5039041;28;20570;-44
2021/12/12 07:22:18;;;;;;;44.07;19.37;;;4.30;99.90;;;;;;5045678;28;20187;-47
2021/12/12 07:24:45;;;;;;;39.43;18.03;;;4.30;99.90;;;;;;5049374;28;20218;-45
2021/12/12 07:27:15;;;;;;;43.50;16.73;;;4.40;99.90;;;;;;5049956;28;20207;-43
2021/12/12 07:29:42;;;;;;;38.70;17.07;;;4.40;99.90;;;;;;5046044;28;20229;-43
2021/12/12 07:32:09;;;;;;;39.60;15.73;;;4.40;99.90;;;;;;5040821;28;20642;-46
2021/12/12 07:34:38;;;;;;;42.80;16.47;;;4.40;99.90;;;;;;5054024;28;20583;-48
2021/12/12 07:37:08;;;;;;;34.80;14.77;;;4.40;99.90;;;;;;5038074;28;20240;-46
2021/12/12 07:39:39;;;;;;;29.53;14.60;;;4.40;99.90;;;;;;5045178;28;20215;-46
2021/12/12 07:42:06;;;;;;;32.33;15.97;;;4.40;99.90;;;;;;5049844;28;20325;-45
2021/12/12 07:44:36;;;;;;;37.97;15.90;;;4.40;99.90;;;;;;5041705;28;20981;-50
2021/12/12 07:47:04;;;;;;;33.63;14.63;;;4.40;99.90;;;;;;5055071;28;20571;-44
2021/12/12 07:49:34;;;;;;;27.97;13.77;;;4.40;99.90;;;;;;5048196;28;20808;-44
2021/12/12 07:52:05;;;;;;;32.03;14.50;;;4.40;99.90;;;;;;5044537;28;20262;-45
2021/12/12 07:54:33;;;;;;;28.77;13.93;;;4.40;99.90;;;;;;5055667;28;20233;-44
2021/12/12 07:57:00;;;;;;;30.70;13.63;;;4.40;99.90;;;;;;5051795;28;20583;-48
2021/12/12 07:59:27;;;;;;;33.50;13.43;;;4.50;99.90;;;;;;5047904;28;20225;-48
2021/12/12 08:01:55;;;;;;;29.57;14.07;;;4.50;99.90;;;;;;5051655;28;20203;-44
2021/12/12 08:04:27;;;;;;;31.50;13.70;;;4.50;99.90;;;;;;5040783;28;20211;-47
2021/12/12 08:06:54;;;;;;;25.93;12.47;;;4.50;99.90;;;;;;5046394;28;20780;-43
2021/12/12 08:09:24;;;;;;;28.60;13.00;;;4.50;99.90;;;;;;5055259;28;20215;-45
2021/12/12 08:11:51;;;;;;;33.33;14.10;;;4.50;99.90;;;;;;5063647;28;20289;-44
2021/12/12 08:14:20;;;;;;;26.13;12.63;;;4.50;99.90;;;;;;5048161;28;20203;-46
2021/12/12 08:16:48;;;;;;;31.23;12.63;;;4.50;99.90;;;;;;5049862;28;20563;-46
2021/12/12 08:19:17;;;;;;;25.57;13.07;;;4.50;99.90;;;;;;5046265;28;20235;-47
2021/12/12 08:21:45;;;;;;;28.67;12.83;;;4.50;99.90;;;;;;5039389;28;20210;-47
2021/12/12 08:24:13;;;;;;;23.23;12.43;;;4.40;99.90;;;;;;5052590;28;20276;-49
2021/12/12 08:26:43;;;;;;;22.27;12.30;;;4.50;99.90;;;;;;5052968;28;20202;-44
2021/12/12 08:29:12;;;;;;;30.47;13.13;;;4.50;99.90;;;;;;5056504;28;20214;-43
2021/12/12 08:31:39;;;;;;;24.23;12.13;;;4.50;99.90;;;;;;5047250;28;20214;-46
2021/12/12 08:34:09;;;;;;;26.03;12.00;;;4.40;99.90;;;;;;5049998;28;20208;-44
2021/12/12 08:36:36;;;;;;;31.77;11.93;;;4.50;99.90;;;;;;5033014;28;22194;-44
2021/12/12 08:39:05;;;;;;;26.13;11.53;;;4.50;99.90;;;;;;5055283;28;20541;-47
2021/12/12 08:41:32;;;;;;;23.20;11.77;;;4.40;99.90;;;;;;5049940;28;20206;-49
2021/12/12 08:44:00;;;;;;;25.90;12.50;;;4.50;99.90;;;;;;5061720;28;20210;-44
2021/12/12 08:46:27;;;;;;;28.63;12.03;;;4.50;99.90;;;;;;5051162;28;20280;-44
2021/12/12 08:48:54;;;;;;;26.73;11.13;;;4.50;99.90;;;;;;5059460;28;20626;-48
2021/12/12 08:51:29;;;;;;;31.97;11.37;;;4.50;99.90;;;;;;5043353;28;20232;-46
2021/12/12 08:53:56;;;;;;;25.30;12.07;;;4.40;99.90;;;;;;5045522;28;20209;-44
2021/12/12 08:56:41;;;;;;;22.97;11.80;;;4.40;99.90;;;;;;5047157;28;20318;-46
2021/12/12 08:59:09;;;;;;;24.57;9.90;;;4.50;99.90;;;;;;5055915;28;20222;-47
2021/12/12 09:01:39;;;;;;;21.10;10.57;;;4.50;99.90;;;;;;5051301;28;22277;-46
2021/12/12 09:04:08;;;;;;;24.77;11.40;;;4.50;99.90;;;;;;5053255;28;20222;-44
2021/12/12 09:06:37;;;;;;;24.00;9.20;;;4.50;99.90;;;;;;5048022;28;20860;-49
2021/12/12 09:09:09;;;;;;;25.67;11.30;;;4.50;99.90;;;;;;5043150;28;20222;-46
2021/12/12 09:11:41;;;;;;;22.27;10.07;;;4.50;99.90;;;;;;5055613;28;20306;-48
2021/12/12 09:14:14;;;;;;;22.90;10.67;;;4.50;99.90;;;;;;5051656;28;20207;-44
2021/12/12 09:16:46;;;;;;;26.57;11.07;;;4.50;99.90;;;;;;5053792;28;20195;-44
2021/12/12 09:19:17;;;;;;;18.80;10.10;;;4.50;99.90;;;;;;5053875;28;20211;-44
2021/12/12 09:21:50;;;;;;;18.73;9.90;;;4.50;99.90;;;;;;5054241;28;20195;-44
2021/12/12 09:24:26;;;;;;;23.10;10.17;;;4.50;99.90;;;;;;5038071;28;20215;-45
2021/12/12 09:26:57;;;;;;;23.10;10.00;;;4.60;99.90;;;;;;5049265;28;20784;-48
2021/12/12 09:29:32;;;;;;;21.10;10.97;;;4.60;99.90;;;;;;5046555;28;20227;-49
2021/12/12 09:32:02;;;;;;;22.03;9.27;;;4.60;99.90;;;;;;5052178;28;20301;-47
2021/12/12 09:34:34;;;;;;;20.03;9.50;;;4.70;99.90;;;;;;5046818;28;20191;-44
2021/12/12 09:37:08;;;;;;;17.07;7.63;;;4.70;99.90;;;;;;5055602;28;20556;-46
2021/12/12 09:39:41;;;;;;;16.33;8.07;;;4.70;99.90;;;;;;5042051;28;20350;-44
2021/12/12 09:42:36;;;;;;;16.50;8.10;;;4.70;99.90;;;;;;5039227;28;20217;-48
2021/12/12 09:45:35;;;;;;;20.50;8.73;;;4.70;99.90;;;;;;5044296;28;20203;-47
2021/12/12 09:51:39;;;;;;;13.27;6.50;;;4.80;99.90;;;;;;5048605;28;22046;-50
2021/12/12 09:54:20;;;;;;;15.07;6.77;;;4.80;99.90;;;;;;5043036;28;20385;-49
2021/12/12 09:56:51;;;;;;;14.13;5.23;;;4.90;99.90;;;;;;5052216;28;20206;-50
2021/12/12 09:59:31;;;;;;;10.07;5.60;;;4.90;99.90;;;;;;5057567;28;20315;-49
2021/12/12 10:02:08;;;;;;;10.23;5.53;;;5.00;99.90;;;;;;5053177;28;20219;-48
2021/12/12 10:04:47;;;;;;;5.97;4.03;;;5.00;99.90;;;;;;5051564;28;20206;-48
2021/12/12 10:07:34;;;;;;;6.67;4.10;;;5.00;99.90;;;;;;5048897;28;20206;-48
2021/12/12 10:10:06;;;;;;;4.90;3.27;;;5.00;99.90;;;;;;5046160;28;20585;-51
2021/12/12 10:12:39;;;;;;;4.37;3.03;;;5.00;99.90;;;;;;5042310;28;20223;-46
2021/12/12 10:15:12;;;;;;;49.07;13.70;;;5.10;99.90;;;;;;5047398;28;20217;-50
2021/12/12 10:17:44;;;;;;;129.43;33.47;;;5.10;99.90;;;;;;5048811;28;20192;-45
2021/12/12 10:20:15;;;;;;;6.03;2.93;;;5.10;99.90;;;;;;5052864;28;20218;-46
2021/12/12 10:22:54;;;;;;;3.53;2.70;;;5.10;99.90;;;;;;5057705;28;20298;-46
2021/12/12 10:25:27;;;;;;;4.40;3.03;;;5.10;99.90;;;;;;5041372;28;20613;-50
2021/12/12 10:28:00;;;;;;;3.57;2.47;;;5.20;99.90;;;;;;5054155;28;20203;-46
2021/12/12 10:30:29;;;;;;;6.60;2.73;;;5.10;99.90;;;;;;5046647;28;20227;-46
2021/12/12 10:33:05;;;;;;;3.13;2.47;;;5.20;99.90;;;;;;5056422;28;20221;-45
2021/12/12 10:35:36;;;;;;;2.63;2.43;;;5.20;99.90;;;;;;5037384;28;20851;-47
2021/12/12 10:38:10;;;;;;;3.00;2.40;;;5.10;99.90;;;;;;5055766;28;20209;-48
2021/12/12 10:40:45;;;;;;;3.87;2.60;;;5.20;99.90;;;;;;5034434;28;20231;-46
2021/12/12 10:43:22;;;;;;;2.60;2.40;;;5.20;99.90;;;;;;5046393;28;20211;-48
2021/12/12 10:45:53;;;;;;;3.53;2.73;;;5.20;99.90;;;;;;5048210;28;20280;-46
2021/12/12 10:48:35;;;;;;;3.00;2.70;;;5.20;99.90;;;;;;5051759;28;20206;-45
2021/12/12 10:51:05;;;;;;;3.17;2.87;;;5.20;99.90;;;;;;5044797;28;20198;-45
2021/12/12 10:53:37;;;;;;;3.90;2.50;;;5.20;99.90;;;;;;5048233;28;20862;-48
2021/12/12 10:56:09;;;;;;;3.40;2.43;;;5.20;99.90;;;;;;5038177;28;20207;-47
2021/12/12 10:58:42;;;;;;;3.10;2.77;;;5.20;99.90;;;;;;5049151;28;20203;-53
2021/12/12 11:01:13;;;;;;;2.90;2.60;;;5.20;99.90;;;;;;5039665;28;20252;-49
2021/12/12 11:03:47;;;;;;;4.27;2.77;;;5.20;99.90;;;;;;5051053;28;20203;-45
2021/12/12 11:06:16;;;;;;;2.97;2.67;;;5.20;99.90;;;;;;5043040;28;20197;-47
2021/12/12 11:08:51;;;;;;;3.37;2.90;;;5.20;99.90;;;;;;5059160;28;20215;-52
2021/12/12 11:11:22;;;;;;;2.53;2.33;;;5.20;99.90;;;;;;5034030;28;20930;-49
2021/12/12 11:13:51;;;;;;;4.13;2.70;;;5.30;99.90;;;;;;5053207;28;20227;-48
2021/12/12 11:16:26;;;;;;;3.40;2.83;;;5.30;99.90;;;;;;5050973;28;20986;-48
2021/12/12 11:18:58;;;;;;;2.43;2.23;;;5.30;99.90;;;;;;5053686;28;20219;-52
2021/12/12 11:21:28;;;;;;;4.23;2.80;;;5.30;99.90;;;;;;5046945;28;20764;-48
2021/12/12 11:23:59;;;;;;;4.17;2.67;;;5.30;99.90;;;;;;5052417;28;20191;-47
2021/12/12 11:26:34;;;;;;;3.27;3.07;;;5.30;99.90;;;;;;5039619;28;20199;-46
2021/12/12 11:29:04;;;;;;;3.10;2.80;;;5.30;99.90;;;;;;5054755;28;20301;-50
2021/12/12 11:31:37;;;;;;;3.10;2.87;;;5.30;99.90;;;;;;5049259;28;20207;-47
2021/12/12 11:34:07;;;;;;;3.60;3.03;;;5.30;99.90;;;;;;5052833;28;20193;-49
2021/12/12 11:36:38;;;;;;;3.47;3.17;;;5.40;99.90;;;;;;5050500;28;20194;-47
2021/12/12 11:39:17;;;;;;;3.73;3.27;;;5.30;99.90;;;;;;5041032;28;20225;-51
2021/12/12 11:41:58;;;;;;;4.07;3.40;;;5.40;99.90;;;;;;5037657;28;20294;-46
2021/12/12 11:44:32;;;;;;;3.20;2.73;;;5.40;99.90;;;;;;5055392;28;20194;-47
2021/12/12 11:47:08;;;;;;;4.83;3.33;;;5.40;99.90;;;;;;5046085;28;20286;-45
2021/12/12 11:49:50;;;;;;;3.83;3.40;;;5.40;99.90;;;;;;5055391;28;20252;-46
2021/12/12 11:52:27;;;;;;;3.77;3.10;;;5.40;99.90;;;;;;5049073;28;20212;-47
2021/12/12 11:55:00;;;;;;;5.00;3.20;;;5.40;99.90;;;;;;5053807;28;20207;-48
2021/12/12 11:57:30;;;;;;;4.33;3.40;;;5.50;99.90;;;;;;5036988;28;20399;-45
2021/12/12 12:00:03;;;;;;;3.27;2.80;;;5.50;99.90;;;;;;5045638;28;20350;-46
2021/12/12 12:02:42;;;;;;;3.07;2.87;;;5.50;99.90;;;;;;5050658;28;20560;-48
2021/12/12 12:05:23;;;;;;;3.83;2.83;;;5.50;99.90;;;;;;5043007;28;20201;-48
2021/12/12 12:08:00;;;;;;;4.60;3.57;;;5.50;99.90;;;;;;5050857;28;20671;-45
2021/12/12 12:10:41;;;;;;;4.23;3.10;;;5.50;99.90;;;;;;5053681;28;20966;-47
2021/12/12 12:13:23;;;;;;;3.53;3.27;;;5.50;99.90;;;;;;5034605;28;20218;-47
2021/12/12 12:15:57;;;;;;;3.57;3.27;;;5.50;99.90;;;;;;5048699;28;20222;-47
2021/12/12 12:18:39;;;;;;;5.20;3.73;;;5.50;99.90;;;;;;5049311;28;20207;-51
2021/12/12 12:21:14;;;;;;;4.60;3.87;;;5.60;99.90;;;;;;5047216;28;20640;-51
2021/12/12 12:26:55;;;;;;;6.93;4.87;;;5.60;99.90;;;;;;5040534;28;20215;-46
2021/12/12 12:30:03;;;;;;;4.60;4.00;;;5.60;99.90;;;;;;5036293;28;20264;-46
2021/12/12 12:33:25;;;;;;;6.47;4.73;;;5.60;99.90;;;;;;5052587;28;20222;-45
2021/12/12 12:36:34;;;;;;;4.20;3.80;;;5.60;99.90;;;;;;5054469;28;20687;-46
2021/12/12 12:39:39;;;;;;;6.83;4.80;;;5.60;99.90;;;;;;5044918;28;20226;-47
2021/12/12 12:42:43;;;;;;;5.27;4.67;;;5.70;99.90;;;;;;5060211;28;20288;-45
2021/12/12 12:49:24;;;;;;;4.93;4.40;;;5.70;99.90;;;;;;5086092;27;20670;-50
2021/12/12 12:52:21;;;;;;;4.83;4.27;;;5.70;99.90;;;;;;5083488;28;20217;-47
2021/12/12 12:55:30;;;;;;;5.03;4.53;;;5.70;99.90;;;;;;5086285;28;20208;-51
2021/12/12 12:58:08;;;;;;;5.20;4.60;;;5.80;99.90;;;;;;5086799;28;20276;-49
2021/12/12 13:00:36;;;;;;;4.77;4.27;;;5.80;99.90;;;;;;5082520;28;20232;-46
2021/12/12 13:03:35;;;;;;;4.10;3.80;;;5.80;99.90;;;;;;5082641;28;20674;-49
2021/12/12 13:06:47;;;;;;;5.93;4.50;;;5.80;99.90;;;;;;5077449;28;20681;-52
2021/12/12 13:09:26;;;;;;;6.83;4.00;;;5.90;99.90;;;;;;5085450;28;20218;-49
2021/12/12 13:12:20;;;;;;;7.23;4.53;;;5.90;99.90;;;;;;5093720;28;20818;-46
2021/12/12 13:14:52;;;;;;;5.57;5.07;;;5.90;99.90;;;;;;5032346;28;20576;-48
2021/12/12 13:17:32;;;;;;;4.93;4.53;;;5.90;99.90;;;;;;5083122;28;21041;-47
2021/12/12 13:20:28;;;;;;;7.50;5.17;;;5.90;99.90;;;;;;5083558;28;20226;-50
2021/12/12 13:23:10;;;;;;;6.40;4.10;;;6.00;99.90;;;;;;5085897;28;20225;-46
2021/12/12 13:25:42;;;;;;;5.10;4.40;;;6.00;99.90;;;;;;5089904;28;20217;-52
2021/12/12 13:28:18;;;;;;;6.00;5.23;;;6.00;99.90;;;;;;5078339;28;20554;-49
2021/12/12 13:30:59;;;;;;;6.97;5.50;;;6.00;99.90;;;;;;5077825;28;20198;-46